Time;durP1;ratioP1;P1;durP2;ratioP2;P2;SDS_P1;SDS_P2;PMS_P1;PMS_P2;Temp;Humidity;BMP_temperature;BMP_pressure;BME280_temperature;BME280_humidity;BME280_pressure;Samples;Min_cycle;Max_cycle;Signal;HPM_P1;HPM_P2
2022/04/14 00:00:09;;;;;;;;;;;;;;;;;;5042340;28;19924;-62
2022/04/14 00:02:34;;;;;;;;;;;;;;;;;;5048789;28;19916;-62
2022/04/14 00:05:02;;;;;;;;;;;;;;;;;;5047765;28;20283;-62
2022/04/14 00:07:30;;;;;;;;;;;;;;;;;;5048948;28;19916;-61
2022/04/14 00:09:58;;;;;;;;;;;;;;;;;;5046440;28;20042;-61
2022/04/14 00:12:26;;;;;;;;;;;;;;;;;;5068364;28;19920;-62
2022/04/14 00:14:51;;;;;;;;;;;;;;;;;;5067575;28;19985;-62
2022/04/14 00:17:17;;;;;;;;;;;;;;;;;;5046553;28;20949;-62
2022/04/14 00:19:42;;;;;;;;;;;;;;;;;;5049546;28;20663;-62
2022/04/14 00:22:08;;;;;;;;;;;;;;;;;;5049271;28;19931;-62
2022/04/14 00:24:35;;;;;;;;;;;;;;;;;;5049508;28;19920;-62
2022/04/14 00:27:01;;;;;;;;;;;;;;;;;;5032812;28;19924;-62
2022/04/14 00:29:29;;;;;;;;;;;;;;;;;;5047318;28;19916;-63
2022/04/14 00:31:59;;;;;;;;;;;;;;;;;;5067497;28;19947;-62
2022/04/14 00:34:26;;;;;;;;;;;;;;;;;;5068583;28;19931;-62
2022/04/14 00:36:53;;;;;;;;;;;;;;;;;;5068086;28;20009;-62
2022/04/14 00:39:19;;;;;;;;;;;;;;;;;;5068169;28;20010;-62
2022/04/14 00:41:45;;;;;;;;;;;;;;;;;;5067797;28;19966;-62
2022/04/14 00:44:10;;;;;;;;;;;;;;;;;;5033068;28;19971;-62
2022/04/14 00:46:35;;;;;;;;;;;;;;;;;;5049444;28;19927;-62
2022/04/14 00:49:03;;;;;;;;;;;;;;;;;;5048665;28;20027;-62
2022/04/14 00:51:29;;;;;;;;;;;;;;;;;;5044774;28;19924;-62
2022/04/14 00:53:54;;;;;;;;;;;;;;;;;;5046677;28;20757;-62
2022/04/14 00:56:20;;;;;;;;;;;;;;;;;;5031814;28;19961;-62
2022/04/14 00:58:45;;;;;;;;;;;;;;;;;;5048254;28;20245;-62
2022/04/14 01:01:12;;;;;;;;;;;;;;;;;;5028565;28;19952;-62
2022/04/14 01:03:38;;;;;;;;;;;;;;;;;;5046347;28;20007;-62
2022/04/14 01:06:03;;;;;;;;;;;;;;;;;;5047003;28;19927;-62
2022/04/14 01:08:29;;;;;;;;;;;;;;;;;;5032559;28;19924;-62
2022/04/14 01:10:55;;;;;;;;;;;;;;;;;;5065684;28;20014;-62
2022/04/14 01:13:20;;;;;;;;;;;;;;;;;;5047871;28;19935;-62
2022/04/14 01:15:48;;;;;;;;;;;;;;;;;;5030344;28;19928;-62
2022/04/14 01:18:13;;;;;;;;;;;;;;;;;;5065521;28;19926;-63
2022/04/14 01:20:38;;;;;;;;;;;;;;;;;;5031865;28;19949;-63
2022/04/14 01:23:06;;;;;;;;;;;;;;;;;;5030475;28;19923;-62
2022/04/14 01:25:34;;;;;;;;;;;;;;;;;;5065702;28;19920;-62
2022/04/14 01:27:59;;;;;;;;;;;;;;;;;;5046686;28;19916;-61
2022/04/14 01:30:25;;;;;;;;;;;;;;;;;;5063129;28;20461;-61
2022/04/14 01:32:50;;;;;;;;;;;;;;;;;;5046878;28;19954;-62
2022/04/14 01:35:15;;;;;;;;;;;;;;;;;;5029223;28;19981;-62
2022/04/14 01:37:41;;;;;;;;;;;;;;;;;;5034178;28;19931;-61
2022/04/14 01:40:06;;;;;;;;;;;;;;;;;;5048433;28;19972;-62
2022/04/14 01:42:31;;;;;;;;;;;;;;;;;;5047069;28;19916;-62
2022/04/14 01:44:56;;;;;;;;;;;;;;;;;;5065094;28;19927;-61
2022/04/14 01:47:22;;;;;;;;;;;;;;;;;;5067262;28;19920;-61
2022/04/14 01:49:47;;;;;;;;;;;;;;;;;;5048780;28;19929;-62
2022/04/14 01:52:15;;;;;;;;;;;;;;;;;;5046027;28;19924;-62
2022/04/14 01:54:43;;;;;;;;;;;;;;;;;;5044680;28;20493;-62
2022/04/14 01:57:09;;;;;;;;;;;;;;;;;;5067118;28;19928;-63
2022/04/14 01:59:39;;;;;;;;;;;;;;;;;;5065264;28;19977;-62
2022/04/14 02:02:07;;;;;;;;;;;;;;;;;;5048243;28;20379;-63
2022/04/14 02:04:32;;;;;;;;;;;;;;;;;;5065168;28;20302;-63
2022/04/14 02:06:58;;;;;;;;;;;;;;;;;;5047530;28;20024;-63
2022/04/14 02:09:24;;;;;;;;;;;;;;;;;;5066479;28;19916;-62
2022/04/14 02:11:49;;;;;;;;;;;;;;;;;;5065991;28;19920;-63
2022/04/14 02:14:14;;;;;;;;;;;;;;;;;;5029286;28;20042;-62
2022/04/14 02:16:42;;;;;;;;;;;;;;;;;;5030328;28;19924;-61
2022/04/14 02:19:08;;;;;;;;;;;;;;;;;;5066334;28;19928;-62
2022/04/14 02:21:33;;;;;;;;;;;;;;;;;;5066040;28;19969;-61
2022/04/14 02:23:58;;;;;;;;;;;;;;;;;;5048235;28;20065;-62
2022/04/14 02:26:23;;;;;;;;;;;;;;;;;;5066914;28;19911;-62
2022/04/14 02:28:49;;;;;;;;;;;;;;;;;;5067231;28;20004;-62
2022/04/14 02:31:15;;;;;;;;;;;;;;;;;;5030562;28;20019;-63
2022/04/14 02:33:42;;;;;;;;;;;;;;;;;;5030632;28;19921;-62
2022/04/14 02:36:13;;;;;;;;;;;;;;;;;;5064096;28;20575;-61
2022/04/14 02:38:39;;;;;;;;;;;;;;;;;;5062611;28;19924;-61
2022/04/14 02:41:08;;;;;;;;;;;;;;;;;;5046390;28;19974;-62
2022/04/14 02:43:36;;;;;;;;;;;;;;;;;;5045955;28;19923;-61
2022/04/14 02:46:01;;;;;;;;;;;;;;;;;;5048442;28;20006;-63
2022/04/14 02:48:27;;;;;;;;;;;;;;;;;;5047750;28;20332;-62
2022/04/14 02:50:52;;;;;;;;;;;;;;;;;;5066466;28;19974;-62
2022/04/14 02:53:20;;;;;;;;;;;;;;;;;;5031305;28;19916;-62
2022/04/14 02:55:45;;;;;;;;;;;;;;;;;;5031934;28;19951;-63
2022/04/14 02:58:12;;;;;;;;;;;;;;;;;;5067097;28;20370;-62
2022/04/14 03:00:38;;;;;;;;;;;;;;;;;;5064620;28;19927;-62
2022/04/14 03:03:03;;;;;;;;;;;;;;;;;;5065729;28;20011;-62
2022/04/14 03:05:28;;;;;;;;;;;;;;;;;;5064343;28;19923;-63
2022/04/14 03:07:54;;;;;;;;;;;;;;;;;;5046706;28;19920;-62
2022/04/14 03:10:20;;;;;;;;;;;;;;;;;;5065397;28;20042;-62
2022/04/14 03:12:49;;;;;;;;;;;;;;;;;;5062382;28;19920;-62
2022/04/14 03:15:14;;;;;;;;;;;;;;;;;;5046395;28;19924;-62
2022/04/14 03:17:40;;;;;;;;;;;;;;;;;;5067054;28;19931;-63
2022/04/14 03:20:05;;;;;;;;;;;;;;;;;;5031705;28;19920;-62
2022/04/14 03:22:30;;;;;;;;;;;;;;;;;;5069034;28;19920;-62
2022/04/14 03:24:56;;;;;;;;;;;;;;;;;;5069389;28;19920;-61
2022/04/14 03:27:21;;;;;;;;;;;;;;;;;;5070334;28;19943;-62
2022/04/14 03:29:49;;;;;;;;;;;;;;;;;;5069576;28;19997;-62
2022/04/14 03:32:15;;;;;;;;;;;;;;;;;;5067724;28;19916;-62
2022/04/14 03:34:41;;;;;;;;;;;;;;;;;;5051047;28;19932;-64
2022/04/14 03:37:06;;;;;;;;;;;;;;;;;;5067871;28;19973;-61
2022/04/14 03:39:31;;;;;;;;;;;;;;;;;;5066897;28;19927;-62
2022/04/14 03:41:59;;;;;;;;;;;;;;;;;;5050210;28;21884;-62
2022/04/14 03:44:24;;;;;;;;;;;;;;;;;;5047916;28;20011;-63
2022/04/14 03:46:50;;;;;;;;;;;;;;;;;;5069663;28;19965;-62
2022/04/14 03:49:15;;;;;;;;;;;;;;;;;;5068440;28;19923;-62
2022/04/14 03:51:42;;;;;;;;;;;;;;;;;;5050177;28;19931;-62
2022/04/14 03:54:08;;;;;;;;;;;;;;;;;;5069233;28;19990;-61
2022/04/14 03:56:33;;;;;;;;;;;;;;;;;;5033586;28;20299;-62
2022/04/14 03:59:00;;;;;;;;;;;;;;;;;;5049195;28;20595;-61
2022/04/14 04:01:25;;;;;;;;;;;;;;;;;;5049067;28;19929;-62
2022/04/14 04:03:54;;;;;;;;;;;;;;;;;;5068438;28;19916;-64
2022/04/14 04:06:21;;;;;;;;;;;;;;;;;;5067325;28;19923;-62
2022/04/14 04:08:47;;;;;;;;;;;;;;;;;;5049801;28;19944;-62
2022/04/14 04:11:12;;;;;;;;;;;;;;;;;;5050427;28;19919;-62
2022/04/14 04:13:37;;;;;;;;;;;;;;;;;;5032784;28;19922;-62
2022/04/14 04:16:03;;;;;;;;;;;;;;;;;;5066795;28;19930;-62
2022/04/14 04:18:33;;;;;;;;;;;;;;;;;;5034432;28;19920;-62
2022/04/14 04:20:58;;;;;;;;;;;;;;;;;;5033886;28;19923;-62
2022/04/14 04:23:26;;;;;;;;;;;;;;;;;;5067777;28;19920;-61
2022/04/14 04:25:51;;;;;;;;;;;;;;;;;;5065850;28;19997;-61
2022/04/14 04:28:19;;;;;;;;;;;;;;;;;;5050697;28;19920;-62
2022/04/14 04:30:48;;;;;;;;;;;;;;;;;;5067980;28;19916;-61
2022/04/14 04:33:13;;;;;;;;;;;;;;;;;;5048786;28;19923;-63
2022/04/14 04:35:41;;;;;;;;;;;;;;;;;;5066912;28;21859;-61
2022/04/14 04:38:09;;;;;;;;;;;;;;;;;;5067265;28;21849;-61
2022/04/14 04:40:34;;;;;;;;;;;;;;;;;;5064008;28;21079;-61
2022/04/14 04:42:59;;;;;;;;;;;;;;;;;;5049639;28;19916;-61
2022/04/14 04:45:24;;;;;;;;;;;;;;;;;;5030937;28;19919;-62
2022/04/14 04:47:50;;;;;;;;;;;;;;;;;;5066760;28;20003;-61
2022/04/14 04:50:18;;;;;;;;;;;;;;;;;;5068021;28;19931;-62
2022/04/14 04:52:44;;;;;;;;;;;;;;;;;;5049327;28;19920;-62
2022/04/14 04:55:10;;;;;;;;;;;;;;;;;;5067146;28;20125;-62
2022/04/14 04:57:35;;;;;;;;;;;;;;;;;;5067989;28;19923;-61
2022/04/14 05:00:04;;;;;;;;;;;;;;;;;;5066322;28;20556;-61
2022/04/14 05:02:29;;;;;;;;;;;;;;;;;;5048350;28;20460;-61
2022/04/14 05:04:55;;;;;;;;;;;;;;;;;;5046980;28;20205;-61
2022/04/14 05:07:23;;;;;;;;;;;;;;;;;;5047034;28;20342;-63
2022/04/14 05:09:55;;;;;;;;;;;;;;;;;;5048894;28;19916;-61
2022/04/14 05:12:21;;;;;;;;;;;;;;;;;;5047934;28;19920;-62
2022/04/14 05:14:49;;;;;;;;;;;;;;;;;;5066519;28;20073;-61
2022/04/14 05:17:14;;;;;;;;;;;;;;;;;;5050343;28;20931;-61
2022/04/14 05:19:42;;;;;;;;;;;;;;;;;;5064432;28;19954;-61
2022/04/14 05:22:10;;;;;;;;;;;;;;;;;;5068807;28;20014;-61
2022/04/14 05:24:36;;;;;;;;;;;;;;;;;;5066775;28;19920;-62
2022/04/14 05:27:01;;;;;;;;;;;;;;;;;;5049267;28;20283;-62
2022/04/14 05:29:26;;;;;;;;;;;;;;;;;;5049051;28;20360;-61
2022/04/14 05:31:51;;;;;;;;;;;;;;;;;;5049380;28;20299;-61
2022/04/14 05:34:17;;;;;;;;;;;;;;;;;;5067677;28;19967;-61
2022/04/14 05:36:42;;;;;;;;;;;;;;;;;;5049424;28;19934;-61
2022/04/14 05:39:07;;;;;;;;;;;;;;;;;;5067075;28;19999;-62
2022/04/14 05:41:35;;;;;;;;;;;;;;;;;;5048827;28;20040;-62
2022/04/14 05:44:06;;;;;;;;;;;;;;;;;;5065743;28;20359;-62
2022/04/14 05:46:31;;;;;;;;;;;;;;;;;;5034920;28;19920;-62
2022/04/14 05:48:57;;;;;;;;;;;;;;;;;;5067460;28;19981;-63
2022/04/14 05:51:24;;;;;;;;;;;;;;;;;;5044374;28;19920;-63
2022/04/14 05:53:51;;;;;;;;;;;;;;;;;;5047971;28;19966;-62
2022/04/14 05:56:19;;;;;;;;;;;;;;;;;;5065214;28;19928;-62
2022/04/14 05:58:47;;;;;;;;;;;;;;;;;;5049437;28;19932;-62
2022/04/14 06:01:15;;;;;;;;;;;;;;;;;;5048164;28;19924;-63
2022/04/14 06:03:41;;;;;;;;;;;;;;;;;;5044901;28;20295;-62
2022/04/14 06:06:06;;;;;;;;;;;;;;;;;;5064843;28;19920;-62
2022/04/14 06:08:36;;;;;;;;;;;;;;;;;;5029642;28;19924;-62
2022/04/14 06:11:02;;;;;;;;;;;;;;;;;;5045928;28;19981;-62
2022/04/14 06:13:27;;;;;;;;;;;;;;;;;;5064875;28;21842;-62
2022/04/14 06:15:55;;;;;;;;;;;;;;;;;;5064974;28;21891;-62
2022/04/14 06:18:23;;;;;;;;;;;;;;;;;;5066651;28;19926;-63
2022/04/14 06:20:49;;;;;;;;;;;;;;;;;;5047375;28;21871;-63
2022/04/14 06:23:16;;;;;;;;;;;;;;;;;;5031194;28;20390;-63
2022/04/14 06:25:50;;;;;;;;;;;;;;;;;;5065218;28;19924;-63
2022/04/14 06:28:16;;;;;;;;;;;;;;;;;;5066630;28;19936;-63
2022/04/14 06:30:42;;;;;;;;;;;;;;;;;;5066192;28;20137;-63
2022/04/14 06:33:07;;;;;;;;;;;;;;;;;;5047796;28;19925;-63
2022/04/14 06:35:33;;;;;;;;;;;;;;;;;;5030618;28;19920;-63
2022/04/14 06:37:58;;;;;;;;;;;;;;;;;;5047791;28;19966;-61
2022/04/14 06:40:23;;;;;;;;;;;;;;;;;;5047985;28;20796;-62
2022/04/14 06:42:51;;;;;;;;;;;;;;;;;;5048820;28;19927;-61
2022/04/14 06:45:19;;;;;;;;;;;;;;;;;;5048104;28;19920;-62
2022/04/14 06:47:45;;;;;;;;;;;;;;;;;;5066029;28;19920;-61
2022/04/14 06:50:10;;;;;;;;;;;;;;;;;;5066254;28;20315;-62
2022/04/14 06:52:40;;;;;;;;;;;;;;;;;;5065955;28;19920;-62
2022/04/14 06:55:05;;;;;;;;;;;;;;;;;;5066485;28;20037;-63
2022/04/14 06:57:31;;;;;;;;;;;;;;;;;;5033487;28;20003;-63
2022/04/14 07:00:01;;;;;;;;;;;;;;;;;;5051389;28;20014;-63
2022/04/14 07:02:31;;;;;;;;;;;;;;;;;;5070504;28;19974;-64
2022/04/14 07:04:59;;;;;;;;;;;;;;;;;;5049846;28;20069;-63
2022/04/14 07:07:27;;;;;;;;;;;;;;;;;;5048833;28;19926;-63
2022/04/14 07:09:53;;;;;;;;;;;;;;;;;;5068261;28;19916;-63
2022/04/14 07:12:20;;;;;;;;;;;;;;;;;;5070898;28;20387;-62
2022/04/14 07:14:47;;;;;;;;;;;;;;;;;;5069303;28;21154;-62
2022/04/14 07:17:16;;;;;;;;;;;;;;;;;;5070216;28;19931;-62
2022/04/14 07:19:44;;;;;;;;;;;;;;;;;;5050880;28;19923;-63
2022/04/14 07:22:10;;;;;;;;;;;;;;;;;;5070108;28;20063;-63
2022/04/14 07:24:35;;;;;;;;;;;;;;;;;;5065609;28;19932;-63
2022/04/14 07:27:03;;;;;;;;;;;;;;;;;;5052563;28;20886;-63
2022/04/14 07:29:28;;;;;;;;;;;;;;;;;;5033321;28;20019;-64
2022/04/14 07:31:56;;;;;;;;;;;;;;;;;;5052016;28;19920;-63
2022/04/14 07:34:21;;;;;;;;;;;;;;;;;;5034291;28;20002;-63
2022/04/14 07:36:49;;;;;;;;;;;;;;;;;;5050753;28;19924;-64
2022/04/14 07:39:15;;;;;;;;;;;;;;;;;;5048956;28;19920;-64
2022/04/14 07:41:47;;;;;;;;;;;;;;;;;;5050998;28;20014;-63
2022/04/14 07:44:13;;;;;;;;;;;;;;;;;;5050886;28;19923;-64
2022/04/14 07:46:39;;;;;;;;;;;;;;;;;;5069486;28;19927;-64
2022/04/14 07:49:05;;;;;;;;;;;;;;;;;;5050921;28;19924;-65
2022/04/14 07:51:37;;;;;;;;;;;;;;;;;;5066014;28;19959;-63
2022/04/14 07:54:03;;;;;;;;;;;;;;;;;;5069156;28;19963;-63
2022/04/14 07:56:28;;;;;;;;;;;;;;;;;;5051385;28;20446;-63
2022/04/14 07:58:53;;;;;;;;;;;;;;;;;;5068271;28;19957;-63
2022/04/14 08:01:19;;;;;;;;;;;;;;;;;;5030783;28;21903;-63
2022/04/14 08:03:46;;;;;;;;;;;;;;;;;;5067745;28;20376;-63
2022/04/14 08:06:13;;;;;;;;;;;;;;;;;;5048240;28;20059;-63
2022/04/14 08:08:38;;;;;;;;;;;;;;;;;;5048307;28;19920;-63
2022/04/14 08:11:04;;;;;;;;;;;;;;;;;;5049698;28;19977;-63
2022/04/14 08:13:30;;;;;;;;;;;;;;;;;;5050761;28;19920;-63
2022/04/14 08:15:56;;;;;;;;;;;;;;;;;;5047337;28;20506;-64
2022/04/14 08:18:24;;;;;;;;;;;;;;;;;;5049775;28;19923;-64
2022/04/14 08:20:50;;;;;;;;;;;;;;;;;;5049736;28;20581;-63
2022/04/14 08:23:15;;;;;;;;;;;;;;;;;;5067750;28;19927;-62
2022/04/14 08:25:41;;;;;;;;;;;;;;;;;;5068678;28;19935;-64
2022/04/14 08:28:07;;;;;;;;;;;;;;;;;;5033258;28;20868;-64
2022/04/14 08:30:32;;;;;;;;;;;;;;;;;;5033384;28;19920;-63
2022/04/14 08:32:58;;;;;;;;;;;;;;;;;;5048496;28;19916;-64
2022/04/14 08:35:29;;;;;;;;;;;;;;;;;;5067720;28;19920;-64
2022/04/14 08:37:54;;;;;;;;;;;;;;;;;;5067563;28;20364;-64
2022/04/14 08:40:21;;;;;;;;;;;;;;;;;;5049446;28;19922;-63
2022/04/14 08:42:49;;;;;;;;;;;;;;;;;;5068227;28;20731;-64
2022/04/14 08:45:20;;;;;;;;;;;;;;;;;;5033058;28;19916;-64
2022/04/14 08:47:45;;;;;;;;;;;;;;;;;;5050287;28;19960;-64
2022/04/14 08:50:13;;;;;;;;;;;;;;;;;;5047793;28;19932;-63
2022/04/14 08:52:39;;;;;;;;;;;;;;;;;;5049727;28;19920;-64
2022/04/14 08:55:04;;;;;;;;;;;;;;;;;;5049312;28;19924;-65
2022/04/14 08:57:32;;;;;;;;;;;;;;;;;;5033294;28;20023;-63
2022/04/14 09:00:01;;;;;;;;;;;;;;;;;;5066819;28;20001;-63
2022/04/14 09:02:29;;;;;;;;;;;;;;;;;;5035949;28;20315;-64
2022/04/14 09:04:57;;;;;;;;;;;;;;;;;;5045908;28;19920;-65
2022/04/14 09:07:40;;;;;;;;;;;;;;;;;;5044029;28;19925;-64
2022/04/14 09:10:05;;;;;;;;;;;;;;;;;;5040493;28;19994;-64
2022/04/14 09:12:30;;;;;;;;;;;;;;;;;;5044071;28;19928;-66
2022/04/14 09:14:55;;;;;;;;;;;;;;;;;;5025147;28;19921;-63
2022/04/14 09:17:24;;;;;;;;;;;;;;;;;;5043216;28;19998;-64
2022/04/14 09:19:50;;;;;;;;;;;;;;;;;;5042181;28;19930;-64
2022/04/14 09:22:15;;;;;;;;;;;;;;;;;;5042447;28;19920;-64
2022/04/14 09:24:41;;;;;;;;;;;;;;;;;;5009977;28;20356;-65
2022/04/14 09:27:07;;;;;;;;;;;;;;;;;;5044845;28;19939;-65
2022/04/14 09:29:35;;;;;;;;;;;;;;;;;;5042711;28;19925;-64
2022/04/14 09:32:00;;;;;;;;;;;;;;;;;;5045094;28;19923;-64
2022/04/14 09:34:26;;;;;;;;;;;;;;;;;;5010097;28;20026;-64
2022/04/14 09:36:52;;;;;;;;;;;;;;;;;;5041367;28;19913;-64
2022/04/14 09:39:17;;;;;;;;;;;;;;;;;;5043826;28;20003;-61
2022/04/14 09:41:43;;;;;;;;;;;;;;;;;;5064857;28;20970;-62
2022/04/14 09:44:09;;;;;;;;;;;;;;;;;;5065004;28;19916;-66
2022/04/14 09:46:36;;;;;;;;;;;;;;;;;;5047434;28;19920;-64
2022/04/14 09:49:05;;;;;;;;;;;;;;;;;;5047883;28;20073;-64
2022/04/14 09:51:30;;;;;;;;;;;;;;;;;;5033130;28;19920;-65
2022/04/14 09:53:55;;;;;;;;;;;;;;;;;;5046783;28;20544;-65
2022/04/14 09:56:23;;;;;;;;;;;;;;;;;;5048937;28;20007;-66
2022/04/14 09:58:49;;;;;;;;;;;;;;;;;;5064090;28;20530;-64
2022/04/14 10:01:15;;;;;;;;;;;;;;;;;;5064973;28;19986;-64
2022/04/14 10:03:40;;;;;;;;;;;;;;;;;;5046923;28;20414;-66
2022/04/14 10:06:06;;;;;;;;;;;;;;;;;;5067398;28;19924;-65
2022/04/14 10:08:31;;;;;;;;;;;;;;;;;;5064246;28;20308;-64
2022/04/14 10:10:57;;;;;;;;;;;;;;;;;;5029936;28;20015;-63
2022/04/14 10:13:23;;;;;;;;;;;;;;;;;;5066434;28;20982;-65
2022/04/14 10:15:48;;;;;;;;;;;;;;;;;;5048781;28;19931;-64
2022/04/14 10:18:14;;;;;;;;;;;;;;;;;;5046975;28;19951;-64
2022/04/14 10:20:44;;;;;;;;;;;;;;;;;;5031311;28;20485;-63
2022/04/14 10:23:10;;;;;;;;;;;;;;;;;;5066168;28;21185;-63
2022/04/14 10:25:37;;;;;;;;;;;;;;;;;;5063223;28;19920;-64
2022/04/14 10:28:05;;;;;;;;;;;;;;;;;;5035646;28;19976;-63
2022/04/14 10:30:30;;;;;;;;;;;;;;;;;;5029977;28;19916;-64
2022/04/14 10:32:56;;;;;;;;;;;;;;;;;;5048364;28;19927;-63
2022/04/14 10:35:21;;;;;;;;;;;;;;;;;;5047425;28;19920;-64
2022/04/14 10:37:52;;;;;;;;;;;;;;;;;;5047069;28;20006;-64
2022/04/14 10:40:17;;;;;;;;;;;;;;;;;;5065993;28;19923;-64
2022/04/14 10:42:43;;;;;;;;;;;;;;;;;;5064813;28;20073;-64
2022/04/14 10:45:08;;;;;;;;;;;;;;;;;;5065871;28;19916;-64
2022/04/14 10:47:36;;;;;;;;;;;;;;;;;;5064311;28;19928;-64
2022/04/14 10:50:03;;;;;;;;;;;;;;;;;;5046703;28;19963;-65
2022/04/14 10:52:28;;;;;;;;;;;;;;;;;;5052999;28;19916;-64
2022/04/14 10:54:53;;;;;;;;;;;;;;;;;;5030865;28;20372;-63
2022/04/14 10:57:19;;;;;;;;;;;;;;;;;;5049283;28;19923;-63
2022/04/14 10:59:44;;;;;;;;;;;;;;;;;;5045992;28;19954;-61
2022/04/14 11:02:09;;;;;;;;;;;;;;;;;;5048717;28;19916;-65
2022/04/14 11:04:40;;;;;;;;;;;;;;;;;;5030473;28;20401;-64
2022/04/14 11:07:06;;;;;;;;;;;;;;;;;;5064243;28;20204;-64
2022/04/14 11:09:31;;;;;;;;;;;;;;;;;;5046980;28;19920;-63
2022/04/14 11:11:57;;;;;;;;;;;;;;;;;;5051521;28;19934;-64
2022/04/14 11:14:28;;;;;;;;;;;;;;;;;;5062237;28;19916;-65
2022/04/14 11:16:53;;;;;;;;;;;;;;;;;;5046284;28;19916;-63
2022/04/14 11:19:19;;;;;;;;;;;;;;;;;;5029959;28;19916;-62
2022/04/14 11:21:47;;;;;;;;;;;;;;;;;;5066836;28;19924;-65
2022/04/14 11:24:12;;;;;;;;;;;;;;;;;;5045586;28;19920;-64
2022/04/14 11:26:40;;;;;;;;;;;;;;;;;;5046957;28;20829;-65
2022/04/14 11:29:08;;;;;;;;;;;;;;;;;;5063181;28;19920;-62
2022/04/14 11:31:33;;;;;;;;;;;;;;;;;;5031305;28;19924;-64
2022/04/14 11:34:01;;;;;;;;;;;;;;;;;;5047433;28;20437;-64
2022/04/14 11:36:29;;;;;;;;;;;;;;;;;;5048139;28;20781;-62
2022/04/14 11:38:57;;;;;;;;;;;;;;;;;;5065771;28;19969;-65
2022/04/14 11:41:42;;;;;;;;;;;;;;;;;;5044390;28;19923;-63
2022/04/14 11:44:07;;;;;;;;;;;;;;;;;;5027725;28;19925;-63
2022/04/14 11:46:32;;;;;;;;;;;;;;;;;;5028577;28;19921;-63
2022/04/14 11:48:58;;;;;;;;;;;;;;;;;;5046520;28;19927;-63
2022/04/14 11:51:23;;;;;;;;;;;;;;;;;;5028034;28;20446;-64
2022/04/14 11:53:49;;;;;;;;;;;;;;;;;;5029844;28;20359;-63
2022/04/14 11:56:21;;;;;;;;;;;;;;;;;;5046447;28;20430;-63
2022/04/14 11:58:47;;;;;;;;;;;;;;;;;;5046724;28;20566;-64
2022/04/14 12:01:13;;;;;;;;;;;;;;;;;;5044655;28;19917;-64
2022/04/14 12:03:38;;;;;;;;;;;;;;;;;;5032873;28;20078;-64
2022/04/14 12:06:05;;;;;;;;;;;;;;;;;;5029544;28;20101;-62
2022/04/14 12:08:33;;;;;;;;;;;;;;;;;;5028326;28;20006;-65
2022/04/14 12:11:01;;;;;;;;;;;;;;;;;;5029139;28;19967;-65
2022/04/14 12:13:27;;;;;;;;;;;;;;;;;;5044398;28;19920;-66
2022/04/14 12:15:55;;;;;;;;;;;;;;;;;;5068462;28;20007;-65
2022/04/14 12:18:25;;;;;;;;;;;;;;;;;;5048448;28;20059;-66
2022/04/14 12:20:50;;;;;;;;;;;;;;;;;;5068245;28;20867;-65
2022/04/14 12:23:18;;;;;;;;;;;;;;;;;;5067435;28;19927;-65
2022/04/14 12:25:43;;;;;;;;;;;;;;;;;;5049202;28;19920;-64
2022/04/14 12:28:08;;;;;;;;;;;;;;;;;;5033165;28;19920;-64
2022/04/14 12:30:34;;;;;;;;;;;;;;;;;;5048487;28;19916;-64
2022/04/14 12:32:59;;;;;;;;;;;;;;;;;;5063173;28;19941;-64
2022/04/14 12:35:28;;;;;;;;;;;;;;;;;;5068180;28;19962;-66
2022/04/14 12:37:54;;;;;;;;;;;;;;;;;;5032433;28;20075;-66
2022/04/14 12:40:25;;;;;;;;;;;;;;;;;;5068433;28;19927;-65
2022/04/14 12:42:50;;;;;;;;;;;;;;;;;;5067868;28;19953;-64
2022/04/14 12:45:18;;;;;;;;;;;;;;;;;;5067969;28;19924;-67
2022/04/14 12:47:44;;;;;;;;;;;;;;;;;;5068140;28;19927;-63
2022/04/14 12:50:09;;;;;;;;;;;;;;;;;;5030892;28;20442;-64
2022/04/14 12:52:34;;;;;;;;;;;;;;;;;;5066415;28;19920;-64
2022/04/14 12:55:00;;;;;;;;;;;;;;;;;;5048692;28;19920;-64
2022/04/14 12:57:26;;;;;;;;;;;;;;;;;;5048582;28;19920;-64
2022/04/14 12:59:51;;;;;;;;;;;;;;;;;;5032055;28;20910;-65
2022/04/14 13:02:21;;;;;;;;;;;;;;;;;;5063319;28;19923;-68
2022/04/14 13:04:46;;;;;;;;;;;;;;;;;;5048804;28;19927;-64
2022/04/14 13:07:14;;;;;;;;;;;;;;;;;;5048996;28;19920;-65
2022/04/14 13:09:40;;;;;;;;;;;;;;;;;;5032652;28;19936;-64
2022/04/14 13:12:05;;;;;;;;;;;;;;;;;;5049953;28;19950;-63
2022/04/14 13:14:31;;;;;;;;;;;;;;;;;;5041491;28;20055;-64
2022/04/14 13:16:56;;;;;;;;;;;;;;;;;;5047069;28;19920;-64
2022/04/14 13:19:22;;;;;;;;;;;;;;;;;;5031138;28;20383;-64
2022/04/14 13:21:47;;;;;;;;;;;;;;;;;;5066167;28;19920;-63
2022/04/14 13:27:30;;;;;;;;;;;;;;;;;;5067057;28;19954;-64
2022/04/14 13:29:56;;;;;;;;;;;;;;;;;;5049226;28;20898;-64
2022/04/14 13:32:21;;;;;;;;;;;;;;;;;;5067772;28;19923;-65
2022/04/14 13:34:46;;;;;;;;;;;;;;;;;;5049315;28;20406;-64
2022/04/14 13:37:12;;;;;;;;;;;;;;;;;;5032538;28;19916;-65
2022/04/14 13:39:37;;;;;;;;;;;;;;;;;;5047133;28;20721;-64
2022/04/14 13:42:03;;;;;;;;;;;;;;;;;;5050527;28;19920;-64
2022/04/14 13:44:30;;;;;;;;;;;;;;;;;;5031888;28;20740;-64
2022/04/14 13:46:56;;;;;;;;;;;;;;;;;;5049604;28;19935;-64
2022/04/14 13:49:25;;;;;;;;;;;;;;;;;;5063007;28;19961;-64
2022/04/14 13:51:51;;;;;;;;;;;;;;;;;;5049166;28;19924;-65
2022/04/14 13:54:17;;;;;;;;;;;;;;;;;;5045980;28;19920;-64
2022/04/14 13:56:47;;;;;;;;;;;;;;;;;;5033248;28;19920;-66
2022/04/14 13:59:15;;;;;;;;;;;;;;;;;;5067538;28;19997;-65
2022/04/14 14:01:40;;;;;;;;;;;;;;;;;;5048261;28;20471;-65
2022/04/14 14:04:18;;;;;;;;;;;;;;;;;;5065282;28;20817;-64
2022/04/14 14:06:55;;;;;;;;;;;;;;;;;;5065210;28;19920;-65
2022/04/14 14:09:21;;;;;;;;;;;;;;;;;;5047158;28;20049;-64
2022/04/14 14:11:48;;;;;;;;;;;;;;;;;;5049172;28;20483;-65
2022/04/14 14:14:16;;;;;;;;;;;;;;;;;;5061432;28;19955;-64
2022/04/14 14:16:41;;;;;;;;;;;;;;;;;;5034779;28;20179;-64
2022/04/14 14:19:10;;;;;;;;;;;;;;;;;;5045598;28;19919;-64
2022/04/14 14:21:35;;;;;;;;;;;;;;;;;;5048191;28;19916;-64
2022/04/14 14:24:01;;;;;;;;;;;;;;;;;;5064748;28;20385;-64
2022/04/14 14:26:30;;;;;;;;;;;;;;;;;;5065087;28;19980;-64
2022/04/14 14:28:55;;;;;;;;;;;;;;;;;;5065376;28;20693;-62
2022/04/14 14:31:24;;;;;;;;;;;;;;;;;;5066110;28;19959;-62
2022/04/14 14:33:49;;;;;;;;;;;;;;;;;;5046731;28;19920;-62
2022/04/14 14:36:15;;;;;;;;;;;;;;;;;;5048361;28;19916;-63
2022/04/14 14:38:58;;;;;;;;;;;;;;;;;;5065467;28;20493;-63
2022/04/14 14:41:26;;;;;;;;;;;;;;;;;;5067546;28;20031;-63
2022/04/14 14:43:55;;;;;;;;;;;;;;;;;;5047523;28;20391;-63
2022/04/14 14:46:21;;;;;;;;;;;;;;;;;;5066889;28;19927;-64
2022/04/14 14:48:47;;;;;;;;;;;;;;;;;;5047640;28;20958;-64
2022/04/14 14:51:13;;;;;;;;;;;;;;;;;;5066018;28;19924;-64
2022/04/14 14:53:39;;;;;;;;;;;;;;;;;;5066452;28;19915;-64
2022/04/14 14:56:05;;;;;;;;;;;;;;;;;;5048168;28;20530;-63
2022/04/14 15:01:14;;;;;;;;;;;;;;;;;;5042529;28;20371;-63
2022/04/14 15:03:40;;;;;;;;;;;;;;;;;;5046940;28;19927;-62
2022/04/14 15:06:06;;;;;;;;;;;;;;;;;;5065267;28;20014;-64
2022/04/14 15:08:31;;;;;;;;;;;;;;;;;;5045955;28;19928;-64
2022/04/14 15:10:59;;;;;;;;;;;;;;;;;;5066910;28;19962;-63
2022/04/14 15:13:24;;;;;;;;;;;;;;;;;;5047239;28;19927;-64
2022/04/14 15:15:55;;;;;;;;;;;;;;;;;;5048444;28;19928;-63
2022/04/14 15:18:20;;;;;;;;;;;;;;;;;;5051065;28;21811;-64
2022/04/14 15:20:45;;;;;;;;;;;;;;;;;;5069066;28;19922;-64
2022/04/14 15:23:11;;;;;;;;;;;;;;;;;;5048539;28;19920;-64
2022/04/14 15:25:36;;;;;;;;;;;;;;;;;;5033721;28;20379;-66
2022/04/14 15:28:01;;;;;;;;;;;;;;;;;;5047252;28;20041;-65
2022/04/14 15:30:27;;;;;;;;;;;;;;;;;;5066464;28;20003;-64
2022/04/14 15:32:56;;;;;;;;;;;;;;;;;;5033346;28;21041;-64
2022/04/14 15:35:21;;;;;;;;;;;;;;;;;;5051517;28;19921;-64
2022/04/14 15:37:49;;;;;;;;;;;;;;;;;;5070357;28;19920;-65
2022/04/14 15:40:16;;;;;;;;;;;;;;;;;;5034129;28;19969;-64
2022/04/14 15:42:42;;;;;;;;;;;;;;;;;;5052669;28;19947;-64
2022/04/14 15:45:07;;;;;;;;;;;;;;;;;;5032504;28;20046;-64
2022/04/14 15:47:35;;;;;;;;;;;;;;;;;;5070338;28;20019;-65
2022/04/14 15:50:00;;;;;;;;;;;;;;;;;;5069651;28;22150;-64
2022/04/14 15:52:25;;;;;;;;;;;;;;;;;;5051561;28;19916;-65
2022/04/14 15:54:51;;;;;;;;;;;;;;;;;;5068774;28;19916;-64
2022/04/14 16:00:34;;;;;;;;;;;;;;;;;;5066723;28;20421;-65
2022/04/14 16:03:02;;;;;;;;;;;;;;;;;;5068274;28;19930;-64
2022/04/14 16:05:27;;;;;;;;;;;;;;;;;;5050848;28;19920;-63
2022/04/14 16:07:55;;;;;;;;;;;;;;;;;;5049870;28;19947;-64
2022/04/14 16:13:05;;;;;;;;;;;;;;;;;;5048935;28;19966;-64
2022/04/14 16:15:30;;;;;;;;;;;;;;;;;;5047889;28;20011;-64
2022/04/14 16:17:58;;;;;;;;;;;;;;;;;;5067978;28;19962;-64
2022/04/14 16:23:11;;;;;;;;;;;;;;;;;;5069157;28;19982;-65
2022/04/14 16:25:37;;;;;;;;;;;;;;;;;;5069178;28;19920;-63
2022/04/14 16:28:06;;;;;;;;;;;;;;;;;;5049829;28;19925;-64
2022/04/14 16:30:34;;;;;;;;;;;;;;;;;;5049173;28;19926;-64
2022/04/14 16:33:03;;;;;;;;;;;;;;;;;;5045958;28;19963;-64
2022/04/14 16:35:28;;;;;;;;;;;;;;;;;;5029418;28;20011;-64
2022/04/14 16:37:58;;;;;;;;;;;;;;;;;;5063371;28;19916;-63
2022/04/14 16:40:23;;;;;;;;;;;;;;;;;;5066368;28;19927;-64
2022/04/14 16:42:49;;;;;;;;;;;;;;;;;;5068566;28;19916;-65
2022/04/14 16:45:14;;;;;;;;;;;;;;;;;;5050610;28;20387;-65
2022/04/14 16:47:43;;;;;;;;;;;;;;;;;;5050865;28;20015;-64
2022/04/14 16:50:09;;;;;;;;;;;;;;;;;;5069067;28;19977;-64
2022/04/14 16:52:37;;;;;;;;;;;;;;;;;;5047682;28;19916;-64
2022/04/14 16:55:03;;;;;;;;;;;;;;;;;;5049579;28;19924;-64